Hornersville, Missouri
Current Conditions -  °F | °C
As of 2:15 AM on Saturday 29 Nov 2014 (Local Time) from KHKA Reporting Station
Broken Clouds Broken Clouds  
Wind Chill: 50°   Ceiling: 2800
Heat Index: 50°   Visibility: 10mi
Dew Point: 39°   Wind: 13mph
Humidity: 66%   Direction: 200°SSW
Pressure: 30.02"   Gusts: NA
Location:  36.04°N, 90.11°W
Report Text: KHKA 290815Z AUTO 20011KT 10SM BKN028 10/04 A3002 RMK AO2 T01000039
Loading
Personal Weather Stations






























Interactive Weather Map New forecast layout! Learn more

10-Day Weather Forecast

Advertisements
Track Severe Weather on mobile